Pagrindinis puslapis
METAR-TAF:

METAR-TAF

Oro uostai :

Dalkahuė, Čilė

platuma: 42-20-25S, ilguma: 073-42-56W, Aukštis: 161 m

Dabartinis oras

Ataskaita buvo paskelbta 31 minutes, ne 18:00 UTC
Vėjas 8 kt iš Pietų
Temperatūra 13°C
Drėgmė 54%
Slėgis 1019 hPa
Matomumas 10 km arba daugiau
nėra debesų žemiau 1500 m ir nėra kamuolinių lietaus debesų

METAR: SCPQ 171800Z 19008KT CAVOK 13/04 Q1019

Laikas: 14:31 (18:31 UTC)


TAF: trūkstamas

Orai ataskaitas ir orų prognozės (METAR, TAF).

turimą stotys yra geltonos ir raudonos taškus žemėlapyje.

Perkelti pele per norėdami pamatyti stoties vardą.

Tada spustelėkite, norėdami matyti oro stebėjimo ir prognozės.

Norėdami pakeisti žemėlapį: spustelėkite ant žalios mygtukų su juodo kryžiaus žemyn,; žalią mygtuką su brūkšneliu, jei norite nutolinti; arba žalių rodyklių gretimoms žemėlapius.


METAR-TAF: